CYYZ/YYZ METAR and TAF weather

Enter ICAO airport designator
Station Type Date Time Source
CYYZ METAR 2017/02/19 23:00 UTC NOAA

CYYZ 192300Z 36007KT 15SM FEW250 07/M00 A3002 RMK CI1 SLP172


Station Type Date Time Source
CYYZ Decoded METAR 2017/02/19 23:00 UTC NOAA

Toronto Pearson Int'L. Ont., Canada (CYYZ) 43-40N 079-38W 173M
Feb 19, 2017 - 06:00 PM EST / 2017.02.19 2300 UTC
Wind: from the N (360 degrees) at 8 MPH (7 KT):0
Visibility: 15 mile(s):0
Sky conditions: mostly clear
Temperature: 44 F (7 C)
Dew Point: 32 F (0 C)
Relative Humidity: 60%
Pressure (altimeter): 30.02 in. Hg (1016 hPa)
ob: CYYZ 192300Z 36007KT 15SM FEW250 07/M00 A3002 RMK CI1 SLP172
cycle: 23

Station Type Date Time Source
CYYZ TAF 2017/02/19 21:40 UTC NOAA

TAF CYYZ 192038Z 1921/2024 30015G25KT P6SM FEW240
BECMG 1922/1924 30012KT
BECMG 2001/2003 32010KT
FM201200 35007KT P6SM SKC
BECMG 2016/2018 12007KT
FM202200 11007KT P6SM BKN200
RMK NXT FCST BY 200000Z


Example: see airport list